sensor_id;sensor_type;location;lat;lon;timestamp;pressure;altitude;pressure_sealevel;temperature;humidity
44979;BME280;67464;52.438;-1.904;2023-02-13T00:01:39;101977.59;;;4.01;100.00
44979;BME280;67464;52.438;-1.904;2023-02-13T00:04:05;101974.78;;;3.24;100.00
44979;BME280;67464;52.438;-1.904;2023-02-13T00:06:30;101972.75;;;3.40;100.00
44979;BME280;67464;52.438;-1.904;2023-02-13T00:08:56;101971.58;;;4.12;100.00
44979;BME280;67464;52.438;-1.904;2023-02-13T00:11:22;101972.22;;;4.18;100.00
44979;BME280;67464;52.438;-1.904;2023-02-13T00:13:47;101969.24;;;4.34;100.00
44979;BME280;67464;52.438;-1.904;2023-02-13T00:16:13;101969.18;;;3.64;100.00
44979;BME280;67464;52.438;-1.904;2023-02-13T00:18:39;101979.05;;;2.82;100.00
44979;BME280;67464;52.438;-1.904;2023-02-13T00:21:07;101974.64;;;3.76;100.00
44979;BME280;67464;52.438;-1.904;2023-02-13T00:23:32;101976.66;;;3.66;100.00
44979;BME280;67464;52.438;-1.904;2023-02-13T00:25:57;101979.44;;;3.46;100.00
44979;BME280;67464;52.438;-1.904;2023-02-13T00:28:22;101981.95;;;2.99;100.00
44979;BME280;67464;52.438;-1.904;2023-02-13T00:30:48;101983.20;;;3.53;100.00
44979;BME280;67464;52.438;-1.904;2023-02-13T00:33:14;101981.41;;;4.25;100.00
44979;BME280;67464;52.438;-1.904;2023-02-13T00:35:39;101978.54;;;4.71;100.00
44979;BME280;67464;52.438;-1.904;2023-02-13T00:38:05;101971.42;;;4.74;100.00
44979;BME280;67464;52.438;-1.904;2023-02-13T00:40:31;101970.40;;;5.25;99.70
44979;BME280;67464;52.438;-1.904;2023-02-13T00:42:56;101971.27;;;5.05;100.00
44979;BME280;67464;52.438;-1.904;2023-02-13T00:45:22;101971.46;;;4.96;100.00
44979;BME280;67464;52.438;-1.904;2023-02-13T00:47:47;101969.51;;;4.16;100.00
44979;BME280;67464;52.438;-1.904;2023-02-13T00:50:13;101959.86;;;3.58;100.00
44979;BME280;67464;52.438;-1.904;2023-02-13T00:52:38;101957.04;;;4.61;100.00
44979;BME280;67464;52.438;-1.904;2023-02-13T00:55:05;101948.75;;;5.47;100.00
44979;BME280;67464;52.438;-1.904;2023-02-13T00:57:30;101952.84;;;4.33;100.00
44979;BME280;67464;52.438;-1.904;2023-02-13T00:59:55;101953.57;;;3.55;100.00
44979;BME280;67464;52.438;-1.904;2023-02-13T01:02:21;101954.87;;;3.74;100.00
44979;BME280;67464;52.438;-1.904;2023-02-13T01:04:47;101952.51;;;3.68;100.00
44979;BME280;67464;52.438;-1.904;2023-02-13T01:07:13;101946.85;;;4.56;100.00
44979;BME280;67464;52.438;-1.904;2023-02-13T01:09:38;101946.91;;;4.57;100.00
44979;BME280;67464;52.438;-1.904;2023-02-13T01:12:03;101938.69;;;5.16;100.00
44979;BME280;67464;52.438;-1.904;2023-02-13T01:14:29;101943.67;;;4.58;100.00
44979;BME280;67464;52.438;-1.904;2023-02-13T01:16:55;101934.92;;;5.32;100.00
44979;BME280;67464;52.438;-1.904;2023-02-13T01:19:21;101933.95;;;6.14;96.24
44979;BME280;67464;52.438;-1.904;2023-02-13T01:21:46;101929.54;;;5.43;93.25
44979;BME280;67464;52.438;-1.904;2023-02-13T01:24:11;101928.32;;;6.15;96.91
44979;BME280;67464;52.438;-1.904;2023-02-13T01:26:36;101924.41;;;7.00;92.88
44979;BME280;67464;52.438;-1.904;2023-02-13T01:29:02;101925.31;;;6.40;86.60
44979;BME280;67464;52.438;-1.904;2023-02-13T01:31:28;101928.38;;;4.89;96.79
44979;BME280;67464;52.438;-1.904;2023-02-13T01:33:55;101931.51;;;4.22;100.00
44979;BME280;67464;52.438;-1.904;2023-02-13T01:36:19;101922.58;;;4.74;100.00
44979;BME280;67464;52.438;-1.904;2023-02-13T01:38:44;101917.15;;;4.74;100.00
44979;BME280;67464;52.438;-1.904;2023-02-13T01:41:10;101920.96;;;4.82;100.00
44979;BME280;67464;52.438;-1.904;2023-02-13T01:43:44;101925.05;;;4.46;100.00
44979;BME280;67464;52.438;-1.904;2023-02-13T01:46:01;101923.35;;;4.08;100.00
44979;BME280;67464;52.438;-1.904;2023-02-13T01:48:27;101916.32;;;4.66;100.00
44979;BME280;67464;52.438;-1.904;2023-02-13T01:50:55;101908.33;;;5.21;100.00
44979;BME280;67464;52.438;-1.904;2023-02-13T01:53:20;101917.43;;;4.66;100.00
44979;BME280;67464;52.438;-1.904;2023-02-13T01:55:47;101918.42;;;3.39;100.00
44979;BME280;67464;52.438;-1.904;2023-02-13T01:58:11;101920.90;;;3.25;100.00
44979;BME280;67464;52.438;-1.904;2023-02-13T02:00:34;101923.30;;;3.70;100.00
44979;BME280;67464;52.438;-1.904;2023-02-13T02:03:02;101921.48;;;3.17;100.00
44979;BME280;67464;52.438;-1.904;2023-02-13T02:05:27;101920.67;;;3.13;100.00
44979;BME280;67464;52.438;-1.904;2023-02-13T02:07:51;101924.56;;;3.53;100.00
44979;BME280;67464;52.438;-1.904;2023-02-13T02:10:17;101923.18;;;3.74;100.00
44979;BME280;67464;52.438;-1.904;2023-02-13T02:12:45;101921.01;;;3.05;100.00
44979;BME280;67464;52.438;-1.904;2023-02-13T02:15:07;101923.32;;;3.40;100.00
44979;BME280;67464;52.438;-1.904;2023-02-13T02:17:32;101916.74;;;4.58;100.00
44979;BME280;67464;52.438;-1.904;2023-02-13T02:20:06;101911.40;;;4.35;100.00
44979;BME280;67464;52.438;-1.904;2023-02-13T02:32:16;101904.95;;;4.81;100.00
44979;BME280;67464;52.438;-1.904;2023-02-13T02:34:36;101897.71;;;5.42;100.00
44979;BME280;67464;52.438;-1.904;2023-02-13T02:37:07;101897.81;;;5.39;99.41
44979;BME280;67464;52.438;-1.904;2023-02-13T02:39:27;101899.66;;;5.38;100.00
44979;BME280;67464;52.438;-1.904;2023-02-13T02:41:56;101901.52;;;4.21;100.00
44979;BME280;67464;52.438;-1.904;2023-02-13T02:44:28;101898.99;;;2.84;100.00
44979;BME280;67464;52.438;-1.904;2023-02-13T02:46:46;101904.91;;;3.97;100.00
44979;BME280;67464;52.438;-1.904;2023-02-13T02:49:06;101902.29;;;3.63;100.00
44979;BME280;67464;52.438;-1.904;2023-02-13T02:51:36;101904.96;;;3.84;100.00
44979;BME280;67464;52.438;-1.904;2023-02-13T02:54:02;101906.05;;;4.67;100.00
44979;BME280;67464;52.438;-1.904;2023-02-13T02:56:24;101904.94;;;4.88;100.00
44979;BME280;67464;52.438;-1.904;2023-02-13T02:58:50;101897.02;;;4.92;100.00
44979;BME280;67464;52.438;-1.904;2023-02-13T03:01:15;101892.42;;;5.29;100.00
44979;BME280;67464;52.438;-1.904;2023-02-13T03:03:37;101885.44;;;4.77;100.00
44979;BME280;67464;52.438;-1.904;2023-02-13T03:06:05;101895.46;;;3.72;100.00
44979;BME280;67464;52.438;-1.904;2023-02-13T03:08:28;101892.16;;;4.04;100.00
44979;BME280;67464;52.438;-1.904;2023-02-13T03:10:52;101894.21;;;4.34;100.00
44979;BME280;67464;52.438;-1.904;2023-02-13T03:13:30;101890.18;;;4.56;100.00
44979;BME280;67464;52.438;-1.904;2023-02-13T03:15:44;101891.55;;;4.11;100.00
44979;BME280;67464;52.438;-1.904;2023-02-13T03:18:09;101899.78;;;3.73;100.00
44979;BME280;67464;52.438;-1.904;2023-02-13T03:20:41;101898.74;;;4.74;100.00
44979;BME280;67464;52.438;-1.904;2023-02-13T03:23:11;101894.80;;;4.27;100.00
44979;BME280;67464;52.438;-1.904;2023-02-13T03:25:29;101888.26;;;4.97;100.00
44979;BME280;67464;52.438;-1.904;2023-02-13T03:27:56;101894.10;;;3.98;100.00
44979;BME280;67464;52.438;-1.904;2023-02-13T03:30:22;101891.37;;;4.02;100.00
44979;BME280;67464;52.438;-1.904;2023-02-13T03:32:46;101884.97;;;4.43;100.00
44979;BME280;67464;52.438;-1.904;2023-02-13T03:35:18;101880.12;;;4.79;100.00
44979;BME280;67464;52.438;-1.904;2023-02-13T03:37:37;101875.96;;;4.65;100.00
44979;BME280;67464;52.438;-1.904;2023-02-13T03:39:59;101884.20;;;3.88;100.00
44979;BME280;67464;52.438;-1.904;2023-02-13T03:42:29;101881.37;;;3.66;100.00
44979;BME280;67464;52.438;-1.904;2023-02-13T03:44:54;101878.56;;;4.06;100.00
44979;BME280;67464;52.438;-1.904;2023-02-13T03:47:16;101878.70;;;3.21;100.00
44979;BME280;67464;52.438;-1.904;2023-02-13T03:49:45;101880.58;;;3.45;100.00
44979;BME280;67464;52.438;-1.904;2023-02-13T03:52:10;101880.21;;;3.98;100.00
44979;BME280;67464;52.438;-1.904;2023-02-13T03:54:34;101880.59;;;3.81;100.00
44979;BME280;67464;52.438;-1.904;2023-02-13T03:56:57;101877.22;;;4.16;100.00
44979;BME280;67464;52.438;-1.904;2023-02-13T03:59:28;101871.76;;;5.71;100.00
44979;BME280;67464;52.438;-1.904;2023-02-13T04:01:53;101871.83;;;4.27;100.00
44979;BME280;67464;52.438;-1.904;2023-02-13T04:04:19;101870.56;;;5.05;100.00
44979;BME280;67464;52.438;-1.904;2023-02-13T04:06:44;101880.05;;;3.78;100.00
44979;BME280;67464;52.438;-1.904;2023-02-13T04:09:04;101880.16;;;4.19;100.00
44979;BME280;67464;52.438;-1.904;2023-02-13T04:11:33;101871.80;;;5.28;100.00
44979;BME280;67464;52.438;-1.904;2023-02-13T04:13:57;101865.39;;;5.34;100.00
44979;BME280;67464;52.438;-1.904;2023-02-13T04:16:23;101873.93;;;4.48;100.00
44979;BME280;67464;52.438;-1.904;2023-02-13T04:18:47;101874.64;;;3.74;100.00
44979;BME280;67464;52.438;-1.904;2023-02-13T04:21:11;101869.06;;;3.71;100.00
44979;BME280;67464;52.438;-1.904;2023-02-13T04:23:37;101873.25;;;3.78;100.00
44979;BME280;67464;52.438;-1.904;2023-02-13T04:26:06;101872.68;;;4.40;100.00
44979;BME280;67464;52.438;-1.904;2023-02-13T04:28:27;101871.82;;;4.02;100.00
44979;BME280;67464;52.438;-1.904;2023-02-13T04:30:53;101865.43;;;3.25;100.00
44979;BME280;67464;52.438;-1.904;2023-02-13T04:33:19;101863.49;;;3.70;100.00
44979;BME280;67464;52.438;-1.904;2023-02-13T04:35:44;101858.98;;;3.43;100.00
44979;BME280;67464;52.438;-1.904;2023-02-13T04:38:10;101857.97;;;3.57;100.00
44979;BME280;67464;52.438;-1.904;2023-02-13T04:40:35;101860.57;;;4.14;100.00
44979;BME280;67464;52.438;-1.904;2023-02-13T04:43:00;101862.64;;;3.42;100.00
44979;BME280;67464;52.438;-1.904;2023-02-13T04:45:26;101859.09;;;3.84;100.00
44979;BME280;67464;52.438;-1.904;2023-02-13T04:47:54;101858.23;;;3.28;100.00
44979;BME280;67464;52.438;-1.904;2023-02-13T04:50:18;101857.07;;;3.53;100.00
44979;BME280;67464;52.438;-1.904;2023-02-13T04:52:43;101858.77;;;4.13;100.00
44979;BME280;67464;52.438;-1.904;2023-02-13T04:55:09;101851.27;;;4.88;100.00
44979;BME280;67464;52.438;-1.904;2023-02-13T04:57:34;101853.92;;;5.26;100.00
44979;BME280;67464;52.438;-1.904;2023-02-13T04:59:59;101855.75;;;4.85;100.00
44979;BME280;67464;52.438;-1.904;2023-02-13T05:02:25;101858.84;;;4.99;100.00
44979;BME280;67464;52.438;-1.904;2023-02-13T05:04:51;101860.39;;;4.53;100.00
44979;BME280;67464;52.438;-1.904;2023-02-13T05:07:16;101868.19;;;2.99;100.00
44979;BME280;67464;52.438;-1.904;2023-02-13T05:09:42;101866.80;;;3.72;100.00
44979;BME280;67464;52.438;-1.904;2023-02-13T05:12:08;101865.42;;;4.16;100.00
44979;BME280;67464;52.438;-1.904;2023-02-13T05:14:33;101868.88;;;3.92;100.00
44979;BME280;67464;52.438;-1.904;2023-02-13T05:16:59;101863.06;;;4.16;100.00
44979;BME280;67464;52.438;-1.904;2023-02-13T05:19:24;101859.80;;;3.71;100.00
44979;BME280;67464;52.438;-1.904;2023-02-13T05:21:50;101860.33;;;2.88;100.00
44979;BME280;67464;52.438;-1.904;2023-02-13T05:24:24;101858.34;;;2.94;100.00
44979;BME280;67464;52.438;-1.904;2023-02-13T05:26:40;101862.21;;;2.83;100.00
44979;BME280;67464;52.438;-1.904;2023-02-13T05:29:05;101864.29;;;2.67;100.00
44979;BME280;67464;52.438;-1.904;2023-02-13T05:31:30;101863.94;;;3.82;100.00
44979;BME280;67464;52.438;-1.904;2023-02-13T05:33:56;101852.82;;;4.89;100.00
44979;BME280;67464;52.438;-1.904;2023-02-13T05:36:21;101856.81;;;5.17;100.00
44979;BME280;67464;52.438;-1.904;2023-02-13T05:38:47;101851.90;;;4.99;100.00
44979;BME280;67464;52.438;-1.904;2023-02-13T05:41:12;101854.59;;;5.41;100.00
44979;BME280;67464;52.438;-1.904;2023-02-13T05:43:38;101854.70;;;4.69;100.00
44979;BME280;67464;52.438;-1.904;2023-02-13T05:46:05;101859.32;;;3.90;100.00
44979;BME280;67464;52.438;-1.904;2023-02-13T05:48:29;101856.17;;;2.45;100.00
44979;BME280;67464;52.438;-1.904;2023-02-13T05:50:54;101859.20;;;3.08;100.00
44979;BME280;67464;52.438;-1.904;2023-02-13T05:53:19;101856.54;;;2.94;100.00
44979;BME280;67464;52.438;-1.904;2023-02-13T05:55:45;101858.67;;;3.28;100.00
44979;BME280;67464;52.438;-1.904;2023-02-13T05:58:10;101855.38;;;4.56;100.00
44979;BME280;67464;52.438;-1.904;2023-02-13T06:00:36;101855.40;;;4.04;100.00
44979;BME280;67464;52.438;-1.904;2023-02-13T06:03:02;101861.23;;;4.33;100.00
44979;BME280;67464;52.438;-1.904;2023-02-13T06:05:27;101857.13;;;4.96;100.00
44979;BME280;67464;52.438;-1.904;2023-02-13T06:07:52;101859.50;;;5.25;100.00
44979;BME280;67464;52.438;-1.904;2023-02-13T06:10:18;101863.18;;;5.14;100.00
44979;BME280;67464;52.438;-1.904;2023-02-13T06:12:43;101869.77;;;3.62;100.00
44979;BME280;67464;52.438;-1.904;2023-02-13T06:15:08;101877.39;;;3.83;100.00
44979;BME280;67464;52.438;-1.904;2023-02-13T06:17:34;101870.47;;;3.78;100.00
44979;BME280;67464;52.438;-1.904;2023-02-13T06:20:00;101864.69;;;4.67;100.00
44979;BME280;67464;52.438;-1.904;2023-02-13T06:22:25;101868.47;;;4.41;100.00
44979;BME280;67464;52.438;-1.904;2023-02-13T06:24:50;101871.78;;;4.34;100.00
44979;BME280;67464;52.438;-1.904;2023-02-13T06:27:16;101861.89;;;4.53;100.00
44979;BME280;67464;52.438;-1.904;2023-02-13T06:29:42;101863.26;;;4.46;100.00
44979;BME280;67464;52.438;-1.904;2023-02-13T06:32:07;101859.68;;;4.83;100.00
44979;BME280;67464;52.438;-1.904;2023-02-13T06:34:32;101865.46;;;4.82;100.00
44979;BME280;67464;52.438;-1.904;2023-02-13T06:36:58;101868.94;;;2.77;100.00
44979;BME280;67464;52.438;-1.904;2023-02-13T06:39:23;101868.65;;;3.91;100.00
44979;BME280;67464;52.438;-1.904;2023-02-13T06:41:49;101858.86;;;5.04;100.00
44979;BME280;67464;52.438;-1.904;2023-02-13T06:44:15;101855.14;;;4.56;100.00
44979;BME280;67464;52.438;-1.904;2023-02-13T06:46:40;101856.34;;;5.68;100.00
44979;BME280;67464;52.438;-1.904;2023-02-13T06:49:06;101853.47;;;4.29;100.00
44979;BME280;67464;52.438;-1.904;2023-02-13T06:51:31;101856.31;;;3.60;100.00
44979;BME280;67464;52.438;-1.904;2023-02-13T06:53:57;101849.05;;;4.12;100.00
44979;BME280;67464;52.438;-1.904;2023-02-13T06:56:22;101846.50;;;4.21;100.00
44979;BME280;67464;52.438;-1.904;2023-02-13T06:58:47;101836.47;;;4.43;100.00
44979;BME280;67464;52.438;-1.904;2023-02-13T07:01:13;101838.18;;;5.42;99.59
44979;BME280;67464;52.438;-1.904;2023-02-13T07:03:38;101838.13;;;4.47;100.00
44979;BME280;67464;52.438;-1.904;2023-02-13T07:06:04;101839.30;;;4.03;100.00
44979;BME280;67464;52.438;-1.904;2023-02-13T07:08:28;101834.31;;;4.97;100.00
44979;BME280;67464;52.438;-1.904;2023-02-13T07:10:54;101845.58;;;4.21;100.00
44979;BME280;67464;52.438;-1.904;2023-02-13T07:13:20;101839.26;;;5.11;100.00
44979;BME280;67464;52.438;-1.904;2023-02-13T07:15:45;101838.21;;;4.41;100.00
44979;BME280;67464;52.438;-1.904;2023-02-13T07:18:11;101840.13;;;3.19;100.00
44979;BME280;67464;52.438;-1.904;2023-02-13T07:20:36;101834.83;;;4.37;100.00
44979;BME280;67464;52.438;-1.904;2023-02-13T07:23:03;101839.52;;;3.29;100.00
44979;BME280;67464;52.438;-1.904;2023-02-13T07:25:28;101845.23;;;3.72;100.00
44979;BME280;67464;52.438;-1.904;2023-02-13T07:27:53;101845.57;;;4.11;100.00
44979;BME280;67464;52.438;-1.904;2023-02-13T07:30:18;101837.37;;;4.45;100.00
44979;BME280;67464;52.438;-1.904;2023-02-13T07:32:44;101839.54;;;5.02;100.00
44979;BME280;67464;52.438;-1.904;2023-02-13T07:35:09;101842.86;;;3.95;100.00
44979;BME280;67464;52.438;-1.904;2023-02-13T07:37:34;101853.67;;;3.81;100.00
44979;BME280;67464;52.438;-1.904;2023-02-13T07:40:00;101851.49;;;4.32;100.00
44979;BME280;67464;52.438;-1.904;2023-02-13T07:42:26;101843.92;;;4.90;100.00
44979;BME280;67464;52.438;-1.904;2023-02-13T07:44:52;101842.45;;;4.92;100.00
44979;BME280;67464;52.438;-1.904;2023-02-13T07:47:17;101848.10;;;3.63;100.00
44979;BME280;67464;52.438;-1.904;2023-02-13T07:49:43;101849.00;;;2.59;100.00
44979;BME280;67464;52.438;-1.904;2023-02-13T07:52:08;101845.83;;;3.01;100.00
44979;BME280;67464;52.438;-1.904;2023-02-13T07:54:35;101848.19;;;3.56;100.00
44979;BME280;67464;52.438;-1.904;2023-02-13T07:56:59;101846.25;;;4.00;100.00
44979;BME280;67464;52.438;-1.904;2023-02-13T07:59:24;101845.79;;;2.80;100.00
44979;BME280;67464;52.438;-1.904;2023-02-13T08:01:50;101856.21;;;2.58;100.00
44979;BME280;67464;52.438;-1.904;2023-02-13T08:04:15;101848.04;;;2.74;100.00
44979;BME280;67464;52.438;-1.904;2023-02-13T08:06:42;101853.56;;;3.24;100.00
44979;BME280;67464;52.438;-1.904;2023-02-13T08:09:07;101852.65;;;3.24;100.00
44979;BME280;67464;52.438;-1.904;2023-02-13T08:11:32;101855.04;;;2.97;100.00
44979;BME280;67464;52.438;-1.904;2023-02-13T08:13:57;101854.89;;;2.96;100.00
44979;BME280;67464;52.438;-1.904;2023-02-13T08:16:22;101855.93;;;3.88;100.00
44979;BME280;67464;52.438;-1.904;2023-02-13T08:18:48;101851.99;;;4.25;100.00
44979;BME280;67464;52.438;-1.904;2023-02-13T08:21:14;101847.95;;;4.70;100.00
44979;BME280;67464;52.438;-1.904;2023-02-13T08:23:39;101856.64;;;4.19;100.00
44979;BME280;67464;52.438;-1.904;2023-02-13T08:26:04;101858.06;;;3.92;100.00
44979;BME280;67464;52.438;-1.904;2023-02-13T08:28:30;101852.09;;;3.39;100.00
44979;BME280;67464;52.438;-1.904;2023-02-13T08:30:55;101850.78;;;3.33;100.00
44979;BME280;67464;52.438;-1.904;2023-02-13T08:33:21;101857.66;;;3.54;100.00
44979;BME280;67464;52.438;-1.904;2023-02-13T08:35:47;101855.16;;;3.44;100.00
44979;BME280;67464;52.438;-1.904;2023-02-13T08:38:12;101849.01;;;4.01;100.00
44979;BME280;67464;52.438;-1.904;2023-02-13T08:40:37;101850.84;;;4.48;100.00
44979;BME280;67464;52.438;-1.904;2023-02-13T08:43:04;101852.73;;;4.39;100.00
44979;BME280;67464;52.438;-1.904;2023-02-13T08:45:28;101853.90;;;3.10;100.00
44979;BME280;67464;52.438;-1.904;2023-02-13T08:47:55;101858.64;;;3.19;100.00
44979;BME280;67464;52.438;-1.904;2023-02-13T08:50:18;101860.38;;;3.48;100.00
44979;BME280;67464;52.438;-1.904;2023-02-13T08:52:43;101858.16;;;4.19;100.00
44979;BME280;67464;52.438;-1.904;2023-02-13T08:55:09;101862.17;;;4.20;100.00
44979;BME280;67464;52.438;-1.904;2023-02-13T08:57:35;101864.73;;;4.47;100.00
44979;BME280;67464;52.438;-1.904;2023-02-13T09:00:00;101862.03;;;5.09;100.00
44979;BME280;67464;52.438;-1.904;2023-02-13T09:02:25;101860.57;;;5.48;99.21
44979;BME280;67464;52.438;-1.904;2023-02-13T09:04:51;101860.99;;;3.08;100.00
44979;BME280;67464;52.438;-1.904;2023-02-13T09:07:16;101853.68;;;4.36;100.00
44979;BME280;67464;52.438;-1.904;2023-02-13T09:09:41;101857.22;;;3.51;100.00
44979;BME280;67464;52.438;-1.904;2023-02-13T09:12:07;101852.91;;;3.52;100.00
44979;BME280;67464;52.438;-1.904;2023-02-13T09:14:33;101841.98;;;4.86;100.00
44979;BME280;67464;52.438;-1.904;2023-02-13T09:16:59;101848.75;;;4.43;100.00
44979;BME280;67464;52.438;-1.904;2023-02-13T09:19:24;101835.20;;;4.58;100.00
44979;BME280;67464;52.438;-1.904;2023-02-13T09:21:49;101839.67;;;4.01;100.00
44979;BME280;67464;52.438;-1.904;2023-02-13T09:24:15;101841.92;;;3.92;100.00
44979;BME280;67464;52.438;-1.904;2023-02-13T09:26:40;101848.94;;;3.84;100.00
44979;BME280;67464;52.438;-1.904;2023-02-13T09:29:05;101843.92;;;3.26;100.00
44979;BME280;67464;52.438;-1.904;2023-02-13T09:31:31;101844.96;;;4.27;100.00
44979;BME280;67464;52.438;-1.904;2023-02-13T09:33:57;101846.21;;;3.77;100.00
44979;BME280;67464;52.438;-1.904;2023-02-13T09:36:23;101847.02;;;3.82;100.00
44979;BME280;67464;52.438;-1.904;2023-02-13T09:38:52;101843.02;;;3.34;100.00
44979;BME280;67464;52.438;-1.904;2023-02-13T09:41:15;101843.26;;;4.05;100.00
44979;BME280;67464;52.438;-1.904;2023-02-13T09:43:42;101845.65;;;3.67;100.00
44979;BME280;67464;52.438;-1.904;2023-02-13T09:46:09;101846.61;;;3.78;100.00
44979;BME280;67464;52.438;-1.904;2023-02-13T09:48:31;101845.44;;;3.20;100.00
44979;BME280;67464;52.438;-1.904;2023-02-13T09:50:55;101839.69;;;4.92;100.00
44979;BME280;67464;52.438;-1.904;2023-02-13T09:53:21;101853.87;;;3.09;100.00
44979;BME280;67464;52.438;-1.904;2023-02-13T09:55:50;101849.74;;;3.90;100.00
44979;BME280;67464;52.438;-1.904;2023-02-13T09:58:15;101845.74;;;3.90;100.00
44979;BME280;67464;52.438;-1.904;2023-02-13T10:00:38;101846.22;;;4.11;100.00
44979;BME280;67464;52.438;-1.904;2023-02-13T10:03:14;101846.93;;;4.10;100.00
44979;BME280;67464;52.438;-1.904;2023-02-13T10:05:39;101842.58;;;4.64;100.00
44979;BME280;67464;52.438;-1.904;2023-02-13T10:08:00;101836.50;;;4.68;95.99
44979;BME280;67464;52.438;-1.904;2023-02-13T10:10:26;101835.71;;;4.93;92.56
44979;BME280;67464;52.438;-1.904;2023-02-13T10:12:54;101838.76;;;4.98;93.40
44979;BME280;67464;52.438;-1.904;2023-02-13T10:15:16;101847.06;;;4.24;96.10
44979;BME280;67464;52.438;-1.904;2023-02-13T10:17:38;101847.66;;;3.94;100.00
44979;BME280;67464;52.438;-1.904;2023-02-13T10:20:03;101850.34;;;4.21;100.00
44979;BME280;67464;52.438;-1.904;2023-02-13T10:22:29;101837.24;;;4.52;95.31
44979;BME280;67464;52.438;-1.904;2023-02-13T10:24:54;101845.15;;;5.12;90.59
44979;BME280;67464;52.438;-1.904;2023-02-13T10:27:21;101843.73;;;5.44;88.57
44979;BME280;67464;52.438;-1.904;2023-02-13T10:29:44;101845.54;;;4.84;90.45
44979;BME280;67464;52.438;-1.904;2023-02-13T10:32:09;101842.25;;;4.82;91.17
44979;BME280;67464;52.438;-1.904;2023-02-13T10:34:38;101835.94;;;4.77;96.37
44979;BME280;67464;52.438;-1.904;2023-02-13T10:36:59;101838.02;;;5.21;86.60
44979;BME280;67464;52.438;-1.904;2023-02-13T10:39:25;101835.38;;;4.92;90.87
44979;BME280;67464;52.438;-1.904;2023-02-13T10:41:51;101834.28;;;5.60;80.90
44979;BME280;67464;52.438;-1.904;2023-02-13T10:44:27;101830.89;;;7.85;69.89
44979;BME280;67464;52.438;-1.904;2023-02-13T10:46:45;101829.36;;;7.19;67.95
44979;BME280;67464;52.438;-1.904;2023-02-13T10:51:35;101827.57;;;7.17;68.17
44979;BME280;67464;52.438;-1.904;2023-02-13T10:56:25;101824.30;;;6.68;74.63
44979;BME280;67464;52.438;-1.904;2023-02-13T10:58:57;101824.94;;;5.82;83.82
44979;BME280;67464;52.438;-1.904;2023-02-13T11:01:16;101821.97;;;6.25;83.14
44979;BME280;67464;52.438;-1.904;2023-02-13T11:03:38;101823.46;;;6.06;82.27
44979;BME280;67464;52.438;-1.904;2023-02-13T11:06:07;101815.62;;;8.65;60.82
44979;BME280;67464;52.438;-1.904;2023-02-13T11:08:31;101821.59;;;7.25;63.21
44979;BME280;67464;52.438;-1.904;2023-02-13T11:10:54;101817.59;;;6.59;72.50
44979;BME280;67464;52.438;-1.904;2023-02-13T11:13:21;101816.65;;;8.36;62.87
44979;BME280;67464;52.438;-1.904;2023-02-13T11:15:55;101818.21;;;7.50;62.60
44979;BME280;67464;52.438;-1.904;2023-02-13T11:18:16;101811.33;;;7.45;63.56
44979;BME280;67464;52.438;-1.904;2023-02-13T11:20:38;101815.31;;;6.32;66.41
44979;BME280;67464;52.438;-1.904;2023-02-13T11:23:17;101812.22;;;8.16;65.38
44979;BME280;67464;52.438;-1.904;2023-02-13T11:25:27;101808.31;;;9.18;57.13
44979;BME280;67464;52.438;-1.904;2023-02-13T11:28:03;101805.80;;;8.30;59.94
44979;BME280;67464;52.438;-1.904;2023-02-13T11:32:55;101810.97;;;7.89;60.96
44979;BME280;67464;52.438;-1.904;2023-02-13T11:35:27;101812.60;;;7.08;64.17
44979;BME280;67464;52.438;-1.904;2023-02-13T11:37:33;101808.71;;;6.97;65.48
44979;BME280;67464;52.438;-1.904;2023-02-13T11:40:20;101811.08;;;7.32;67.28
44979;BME280;67464;52.438;-1.904;2023-02-13T11:42:29;101805.47;;;7.03;69.84
44979;BME280;67464;52.438;-1.904;2023-02-13T11:44:52;101797.30;;;10.14;59.79
44979;BME280;67464;52.438;-1.904;2023-02-13T11:47:15;101803.72;;;9.40;54.05
44979;BME280;67464;52.438;-1.904;2023-02-13T11:49:45;101803.86;;;8.38;58.30
44979;BME280;67464;52.438;-1.904;2023-02-13T11:52:19;101796.02;;;6.95;61.42
44979;BME280;67464;52.438;-1.904;2023-02-13T11:54:34;101784.33;;;10.07;59.22
44979;BME280;67464;52.438;-1.904;2023-02-13T11:57:00;101780.68;;;10.85;52.32
44979;BME280;67464;52.438;-1.904;2023-02-13T11:59:24;101777.17;;;11.48;48.54
44979;BME280;67464;52.438;-1.904;2023-02-13T12:02:03;101774.15;;;11.50;47.13
44979;BME280;67464;52.438;-1.904;2023-02-13T12:04:16;101772.30;;;10.55;48.65
44979;BME280;67464;52.438;-1.904;2023-02-13T12:06:39;101773.91;;;11.27;47.55
44979;BME280;67464;52.438;-1.904;2023-02-13T12:09:11;101777.43;;;10.57;47.70
44979;BME280;67464;52.438;-1.904;2023-02-13T12:11:37;101772.57;;;12.09;47.01
44979;BME280;67464;52.438;-1.904;2023-02-13T12:13:56;101764.29;;;13.83;41.48
44979;BME280;67464;52.438;-1.904;2023-02-13T12:16:28;101771.98;;;11.54;42.24
44979;BME280;67464;52.438;-1.904;2023-02-13T12:18:50;101770.06;;;11.25;45.48
44979;BME280;67464;52.438;-1.904;2023-02-13T12:21:23;101770.12;;;10.96;46.28
44979;BME280;67464;52.438;-1.904;2023-02-13T12:23:42;101775.67;;;11.38;46.97
44979;BME280;67464;52.438;-1.904;2023-02-13T12:26:12;101766.76;;;13.02;44.13
44979;BME280;67464;52.438;-1.904;2023-02-13T12:28:37;101766.87;;;13.29;41.24
44979;BME280;67464;52.438;-1.904;2023-02-13T12:31:03;101774.49;;;11.12;45.44
44979;BME280;67464;52.438;-1.904;2023-02-13T12:33:32;101770.51;;;9.81;50.33
44979;BME280;67464;52.438;-1.904;2023-02-13T12:35:48;101770.00;;;10.23;53.03
44979;BME280;67464;52.438;-1.904;2023-02-13T12:38:17;101765.01;;;10.77;49.76
44979;BME280;67464;52.438;-1.904;2023-02-13T12:40:47;101759.54;;;13.45;46.73
44979;BME280;67464;52.438;-1.904;2023-02-13T12:43:21;101758.59;;;12.57;44.05
44979;BME280;67464;52.438;-1.904;2023-02-13T12:45:32;101765.14;;;10.27;46.69
44979;BME280;67464;52.438;-1.904;2023-02-13T12:48:01;101755.18;;;12.72;44.05